createdAt,value
2022-08-30T00:09:48.161Z,1015.72
2022-08-30T00:19:48.202Z,1015.70
2022-08-30T00:29:48.506Z,1015.68
2022-08-30T00:39:48.541Z,1015.68
2022-08-30T00:49:49.061Z,1015.64
2022-08-30T00:59:48.894Z,1015.68
2022-08-30T01:09:49.197Z,1015.74
2022-08-30T01:19:49.225Z,1015.65
2022-08-30T01:29:49.552Z,1015.57
2022-08-30T01:39:49.585Z,1015.56
2022-08-30T01:49:49.910Z,1015.48
2022-08-30T01:59:49.934Z,1015.66
2022-08-30T02:09:50.243Z,1015.62
2022-08-30T02:19:50.395Z,1015.54
2022-08-30T02:29:50.493Z,1015.61
2022-08-30T02:39:50.524Z,1015.59
2022-08-30T02:49:50.849Z,1015.61
2022-08-30T02:59:50.909Z,1015.44
2022-08-30T03:09:50.989Z,1015.47
2022-08-30T03:19:51.009Z,1015.38
2022-08-30T03:29:51.339Z,1015.36
2022-08-30T03:39:51.360Z,1015.39
2022-08-30T03:49:51.797Z,1015.43
2022-08-30T03:59:51.825Z,1015.52
2022-08-30T04:09:52.150Z,1015.55
2022-08-30T04:19:52.204Z,1015.59
2022-08-30T04:29:52.500Z,1015.63
2022-08-30T04:39:52.690Z,1015.67
2022-08-30T04:49:52.945Z,1015.85
2022-08-30T04:59:53.168Z,1015.81
2022-08-30T05:09:53.520Z,1015.79
2022-08-30T05:19:53.546Z,1015.83
2022-08-30T05:29:53.846Z,1015.79
2022-08-30T05:39:53.875Z,1015.85
2022-08-30T05:49:54.196Z,1015.74
2022-08-30T05:59:54.996Z,1015.85
2022-08-30T06:09:54.546Z,1015.89
2022-08-30T06:19:54.568Z,1016.02
2022-08-30T06:29:54.896Z,1016.00
2022-08-30T06:39:54.925Z,1015.97
2022-08-30T06:49:55.253Z,1015.87
2022-08-30T06:59:57.215Z,1015.90
2022-08-30T07:09:55.495Z,1015.88
2022-08-30T07:19:55.507Z,1015.70
2022-08-30T07:29:55.858Z,1015.72
2022-08-30T07:39:55.968Z,1015.67
2022-08-30T07:49:56.294Z,1015.67
2022-08-30T07:59:56.318Z,1015.57
2022-08-30T08:09:56.649Z,1015.52
2022-08-30T08:19:56.681Z,1015.60
2022-08-30T08:29:57.000Z,1015.45
2022-08-30T08:39:57.045Z,1015.44
2022-08-30T08:49:57.343Z,1015.40
2022-08-30T08:59:57.371Z,1015.29
2022-08-30T09:09:57.696Z,1015.12
2022-08-30T09:19:57.717Z,1015.08
2022-08-30T09:29:58.048Z,1014.97
2022-08-30T09:39:58.128Z,1014.83
2022-08-30T09:49:58.307Z,1014.63
2022-08-30T09:59:58.333Z,1014.60
2022-08-30T10:09:58.642Z,1014.62
2022-08-30T10:19:58.737Z,1014.59
2022-08-30T10:29:58.888Z,1014.47
2022-08-30T10:39:59.149Z,1014.50
2022-08-30T10:49:59.206Z,1014.49
2022-08-30T10:59:59.255Z,1014.38
2022-08-30T11:09:59.595Z,1014.46
2022-08-30T11:19:59.628Z,1014.51
2022-08-30T11:29:59.950Z,1014.39
2022-08-30T11:40:01.946Z,1014.28
2022-08-30T11:50:00.059Z,1014.20
2022-08-30T12:00:00.396Z,1014.09
2022-08-30T12:10:00.405Z,1013.91
2022-08-30T12:20:00.724Z,1013.67
2022-08-30T12:30:00.787Z,1013.56
2022-08-30T12:40:01.129Z,1013.56
2022-08-30T12:50:01.203Z,1013.53
2022-08-30T13:00:02.399Z,1013.36
2022-08-30T13:10:01.844Z,1013.25
2022-08-30T13:20:01.974Z,1013.15
2022-08-30T13:30:02.030Z,1013.06
2022-08-30T13:40:04.770Z,1013.07
2022-08-30T13:50:02.453Z,1013.01
2022-08-30T14:00:02.771Z,1012.85
2022-08-30T14:20:04.160Z,1012.66
2022-08-30T14:30:03.582Z,1012.54
2022-08-30T14:40:03.654Z,1012.43
2022-08-30T14:50:03.846Z,1012.41
2022-08-30T15:00:03.797Z,1012.33
2022-08-30T15:10:04.111Z,1012.30
2022-08-30T15:20:08.555Z,1012.23
2022-08-30T15:30:05.410Z,1012.09
2022-08-30T15:40:04.974Z,1011.99
2022-08-30T15:50:04.846Z,1011.82
2022-08-30T16:00:05.523Z,1011.80
2022-08-30T16:10:05.307Z,1011.70
2022-08-30T16:20:05.522Z,1011.69
2022-08-30T16:30:05.584Z,1011.59
2022-08-30T16:40:05.926Z,1011.68
2022-08-30T16:50:05.987Z,1011.70
2022-08-30T17:00:06.325Z,1011.88
2022-08-30T17:10:07.393Z,1012.00
2022-08-30T17:20:06.671Z,1011.96
2022-08-30T17:30:07.012Z,1012.16
2022-08-30T17:40:07.174Z,1012.19
2022-08-30T17:50:08.191Z,1012.36
2022-08-30T18:00:07.376Z,1012.53
2022-08-30T18:10:07.404Z,1012.65
2022-08-30T18:20:07.727Z,1012.81
2022-08-30T18:30:11.575Z,1012.87
2022-08-30T18:40:09.831Z,1012.98
2022-08-30T18:50:08.258Z,1013.21
2022-08-30T19:00:08.392Z,1013.46
2022-08-30T19:10:08.507Z,1013.51
2022-08-30T19:20:08.526Z,1013.46
2022-08-30T19:30:08.784Z,1013.49
2022-08-30T19:40:08.912Z,1013.51
2022-08-30T19:50:09.097Z,1013.49
2022-08-30T20:00:09.136Z,1013.50
2022-08-30T20:10:09.330Z,1013.63
2022-08-30T20:20:09.377Z,1013.63
2022-08-30T20:30:09.600Z,1013.68
2022-08-30T20:40:13.442Z,1013.78
2022-08-30T20:50:13.673Z,1013.81
2022-08-30T21:00:10.210Z,1013.83
2022-08-30T21:10:10.344Z,1013.83
2022-08-30T21:20:10.772Z,1013.84
2022-08-30T21:30:10.812Z,1013.93
2022-08-30T21:40:11.175Z,1013.98
2022-08-30T21:50:11.308Z,1014.06
2022-08-30T22:00:11.586Z,1014.15
2022-08-30T22:10:11.805Z,1014.31
2022-08-30T22:20:11.922Z,1014.44
2022-08-30T22:30:12.993Z,1014.52
2022-08-30T22:40:12.364Z,1014.43
2022-08-30T22:50:12.398Z,1014.57
2022-08-30T23:00:12.726Z,1014.50
2022-08-30T23:10:12.756Z,1014.43
2022-08-30T23:20:13.073Z,1014.51
2022-08-30T23:30:13.179Z,1014.60
2022-08-30T23:40:13.347Z,1014.64
2022-08-30T23:50:13.413Z,1014.57
